sensor_id;sensor_type;location;lat;lon;timestamp;P1;durP1;ratioP1;P2;durP2;ratioP2
16735;SDS011;17990;49.548;9.730;2023-01-19T00:01:16;17.60;;;8.93;;
16735;SDS011;17990;49.548;9.730;2023-01-19T00:03:43;19.90;;;9.90;;
16735;SDS011;17990;49.548;9.730;2023-01-19T00:06:10;22.27;;;10.63;;
16735;SDS011;17990;49.548;9.730;2023-01-19T00:08:38;20.10;;;9.30;;
16735;SDS011;17990;49.548;9.730;2023-01-19T00:11:05;18.63;;;9.53;;
16735;SDS011;17990;49.548;9.730;2023-01-19T00:13:32;20.03;;;9.43;;
16735;SDS011;17990;49.548;9.730;2023-01-19T00:16:01;21.10;;;9.63;;
16735;SDS011;17990;49.548;9.730;2023-01-19T00:18:28;25.40;;;10.97;;
16735;SDS011;17990;49.548;9.730;2023-01-19T00:20:55;21.20;;;10.83;;
16735;SDS011;17990;49.548;9.730;2023-01-19T00:23:23;22.73;;;10.33;;
16735;SDS011;17990;49.548;9.730;2023-01-19T00:25:50;22.13;;;10.23;;
16735;SDS011;17990;49.548;9.730;2023-01-19T00:28:17;21.73;;;10.10;;
16735;SDS011;17990;49.548;9.730;2023-01-19T00:30:45;21.43;;;10.50;;
16735;SDS011;17990;49.548;9.730;2023-01-19T00:33:13;22.70;;;10.33;;
16735;SDS011;17990;49.548;9.730;2023-01-19T00:35:40;23.47;;;10.40;;
16735;SDS011;17990;49.548;9.730;2023-01-19T00:38:08;20.17;;;10.53;;
16735;SDS011;17990;49.548;9.730;2023-01-19T00:40:35;18.37;;;10.10;;
16735;SDS011;17990;49.548;9.730;2023-01-19T00:43:02;24.00;;;9.83;;
16735;SDS011;17990;49.548;9.730;2023-01-19T00:45:30;19.63;;;9.87;;
16735;SDS011;17990;49.548;9.730;2023-01-19T00:47:58;20.40;;;10.30;;
16735;SDS011;17990;49.548;9.730;2023-01-19T00:50:27;21.40;;;10.13;;
16735;SDS011;17990;49.548;9.730;2023-01-19T00:52:56;18.37;;;9.83;;
16735;SDS011;17990;49.548;9.730;2023-01-19T00:55:25;18.07;;;8.90;;
16735;SDS011;17990;49.548;9.730;2023-01-19T00:57:53;20.03;;;10.43;;
16735;SDS011;17990;49.548;9.730;2023-01-19T01:00:20;21.33;;;9.90;;
16735;SDS011;17990;49.548;9.730;2023-01-19T01:02:48;18.97;;;9.97;;
16735;SDS011;17990;49.548;9.730;2023-01-19T01:05:17;19.67;;;10.47;;
16735;SDS011;17990;49.548;9.730;2023-01-19T01:07:46;18.67;;;9.70;;
16735;SDS011;17990;49.548;9.730;2023-01-19T01:10:14;21.67;;;9.97;;
16735;SDS011;17990;49.548;9.730;2023-01-19T01:12:42;18.70;;;9.40;;
16735;SDS011;17990;49.548;9.730;2023-01-19T01:15:12;17.50;;;9.73;;
16735;SDS011;17990;49.548;9.730;2023-01-19T01:17:40;20.47;;;9.67;;
16735;SDS011;17990;49.548;9.730;2023-01-19T01:20:12;19.23;;;9.43;;
16735;SDS011;17990;49.548;9.730;2023-01-19T01:22:42;18.10;;;9.60;;
16735;SDS011;17990;49.548;9.730;2023-01-19T01:25:11;19.23;;;10.20;;
16735;SDS011;17990;49.548;9.730;2023-01-19T01:27:39;20.67;;;9.73;;
16735;SDS011;17990;49.548;9.730;2023-01-19T01:30:07;20.63;;;9.97;;
16735;SDS011;17990;49.548;9.730;2023-01-19T01:32:36;20.27;;;10.07;;
16735;SDS011;17990;49.548;9.730;2023-01-19T01:35:03;18.17;;;9.23;;
16735;SDS011;17990;49.548;9.730;2023-01-19T01:37:33;22.27;;;10.03;;
16735;SDS011;17990;49.548;9.730;2023-01-19T01:40:00;21.47;;;10.27;;
16735;SDS011;17990;49.548;9.730;2023-01-19T01:42:29;18.87;;;10.00;;
16735;SDS011;17990;49.548;9.730;2023-01-19T01:44:57;22.67;;;11.20;;
16735;SDS011;17990;49.548;9.730;2023-01-19T01:47:27;28.27;;;11.17;;
16735;SDS011;17990;49.548;9.730;2023-01-19T01:49:58;22.40;;;10.20;;
16735;SDS011;17990;49.548;9.730;2023-01-19T01:52:30;21.53;;;10.53;;
16735;SDS011;17990;49.548;9.730;2023-01-19T01:54:59;20.77;;;8.93;;
16735;SDS011;17990;49.548;9.730;2023-01-19T01:57:32;18.80;;;9.77;;
16735;SDS011;17990;49.548;9.730;2023-01-19T02:00:00;19.60;;;9.17;;
16735;SDS011;17990;49.548;9.730;2023-01-19T02:02:29;15.50;;;8.33;;
16735;SDS011;17990;49.548;9.730;2023-01-19T02:05:16;20.27;;;9.87;;
16735;SDS011;17990;49.548;9.730;2023-01-19T02:07:45;19.03;;;9.97;;
16735;SDS011;17990;49.548;9.730;2023-01-19T02:10:31;19.50;;;9.77;;
16735;SDS011;17990;49.548;9.730;2023-01-19T02:13:18;23.27;;;9.60;;
16735;SDS011;17990;49.548;9.730;2023-01-19T02:15:46;16.23;;;8.67;;
16735;SDS011;17990;49.548;9.730;2023-01-19T02:18:15;21.93;;;9.40;;
16735;SDS011;17990;49.548;9.730;2023-01-19T02:20:44;18.40;;;9.33;;
16735;SDS011;17990;49.548;9.730;2023-01-19T02:23:19;20.23;;;8.93;;
16735;SDS011;17990;49.548;9.730;2023-01-19T02:25:54;18.03;;;8.43;;
16735;SDS011;17990;49.548;9.730;2023-01-19T02:28:21;17.37;;;8.40;;
16735;SDS011;17990;49.548;9.730;2023-01-19T02:30:50;20.17;;;9.60;;
16735;SDS011;17990;49.548;9.730;2023-01-19T02:33:17;20.90;;;9.67;;
16735;SDS011;17990;49.548;9.730;2023-01-19T02:35:44;16.70;;;9.50;;
16735;SDS011;17990;49.548;9.730;2023-01-19T02:38:11;17.47;;;9.23;;
16735;SDS011;17990;49.548;9.730;2023-01-19T02:40:41;24.63;;;9.80;;
16735;SDS011;17990;49.548;9.730;2023-01-19T02:43:09;22.73;;;11.77;;
16735;SDS011;17990;49.548;9.730;2023-01-19T02:45:37;20.47;;;10.00;;
16735;SDS011;17990;49.548;9.730;2023-01-19T02:48:04;17.67;;;10.10;;
16735;SDS011;17990;49.548;9.730;2023-01-19T02:50:39;20.60;;;10.50;;
16735;SDS011;17990;49.548;9.730;2023-01-19T02:56:27;17.53;;;9.47;;
16735;SDS011;17990;49.548;9.730;2023-01-19T02:59:03;15.43;;;9.03;;
16735;SDS011;17990;49.548;9.730;2023-01-19T03:01:37;17.23;;;9.10;;
16735;SDS011;17990;49.548;9.730;2023-01-19T03:04:13;19.50;;;10.10;;
16735;SDS011;17990;49.548;9.730;2023-01-19T03:06:46;17.37;;;9.33;;
16735;SDS011;17990;49.548;9.730;2023-01-19T03:09:19;25.50;;;11.80;;
16735;SDS011;17990;49.548;9.730;2023-01-19T03:11:53;17.97;;;9.47;;
16735;SDS011;17990;49.548;9.730;2023-01-19T03:14:27;17.67;;;9.57;;
16735;SDS011;17990;49.548;9.730;2023-01-19T03:16:56;19.70;;;10.00;;
16735;SDS011;17990;49.548;9.730;2023-01-19T03:19:26;18.70;;;10.43;;
16735;SDS011;17990;49.548;9.730;2023-01-19T03:21:57;21.20;;;10.90;;
16735;SDS011;17990;49.548;9.730;2023-01-19T03:24:25;21.67;;;9.63;;
16735;SDS011;17990;49.548;9.730;2023-01-19T03:26:58;15.60;;;8.43;;
16735;SDS011;17990;49.548;9.730;2023-01-19T03:29:28;18.47;;;9.40;;
16735;SDS011;17990;49.548;9.730;2023-01-19T03:31:59;18.13;;;9.27;;
16735;SDS011;17990;49.548;9.730;2023-01-19T03:34:31;20.27;;;10.20;;
16735;SDS011;17990;49.548;9.730;2023-01-19T03:37:01;17.03;;;8.97;;
16735;SDS011;17990;49.548;9.730;2023-01-19T03:39:29;21.37;;;9.77;;
16735;SDS011;17990;49.548;9.730;2023-01-19T03:41:58;18.77;;;10.33;;
16735;SDS011;17990;49.548;9.730;2023-01-19T03:44:28;20.97;;;9.90;;
16735;SDS011;17990;49.548;9.730;2023-01-19T03:46:57;17.10;;;9.57;;
16735;SDS011;17990;49.548;9.730;2023-01-19T03:49:24;21.60;;;10.60;;
16735;SDS011;17990;49.548;9.730;2023-01-19T03:51:54;22.20;;;11.00;;
16735;SDS011;17990;49.548;9.730;2023-01-19T03:54:22;22.20;;;10.97;;
16735;SDS011;17990;49.548;9.730;2023-01-19T03:56:50;23.73;;;11.43;;
16735;SDS011;17990;49.548;9.730;2023-01-19T03:59:19;21.40;;;11.67;;
16735;SDS011;17990;49.548;9.730;2023-01-19T04:01:46;21.87;;;11.67;;
16735;SDS011;17990;49.548;9.730;2023-01-19T04:04:14;21.27;;;11.20;;
16735;SDS011;17990;49.548;9.730;2023-01-19T04:06:41;21.23;;;11.97;;
16735;SDS011;17990;49.548;9.730;2023-01-19T04:09:09;21.03;;;11.87;;
16735;SDS011;17990;49.548;9.730;2023-01-19T04:11:36;21.53;;;11.67;;
16735;SDS011;17990;49.548;9.730;2023-01-19T04:14:03;24.30;;;12.40;;
16735;SDS011;17990;49.548;9.730;2023-01-19T04:16:32;19.60;;;10.77;;
16735;SDS011;17990;49.548;9.730;2023-01-19T04:18:59;20.80;;;11.60;;
16735;SDS011;17990;49.548;9.730;2023-01-19T04:21:26;22.47;;;11.70;;
16735;SDS011;17990;49.548;9.730;2023-01-19T04:23:53;20.40;;;12.03;;
16735;SDS011;17990;49.548;9.730;2023-01-19T04:26:20;21.70;;;12.00;;
16735;SDS011;17990;49.548;9.730;2023-01-19T04:28:48;21.63;;;11.37;;
16735;SDS011;17990;49.548;9.730;2023-01-19T04:31:15;21.47;;;12.17;;
16735;SDS011;17990;49.548;9.730;2023-01-19T04:33:44;24.70;;;13.60;;
16735;SDS011;17990;49.548;9.730;2023-01-19T04:36:11;25.97;;;12.20;;
16735;SDS011;17990;49.548;9.730;2023-01-19T04:38:38;21.53;;;12.33;;
16735;SDS011;17990;49.548;9.730;2023-01-19T04:41:06;20.33;;;11.70;;
16735;SDS011;17990;49.548;9.730;2023-01-19T04:43:33;20.40;;;11.33;;
16735;SDS011;17990;49.548;9.730;2023-01-19T04:46:00;20.93;;;10.83;;
16735;SDS011;17990;49.548;9.730;2023-01-19T04:48:27;23.97;;;11.33;;
16735;SDS011;17990;49.548;9.730;2023-01-19T04:50:56;25.37;;;12.17;;
16735;SDS011;17990;49.548;9.730;2023-01-19T04:53:23;21.90;;;11.57;;
16735;SDS011;17990;49.548;9.730;2023-01-19T04:55:51;25.20;;;11.97;;
16735;SDS011;17990;49.548;9.730;2023-01-19T04:58:19;23.60;;;11.77;;
16735;SDS011;17990;49.548;9.730;2023-01-19T05:00:47;21.50;;;11.70;;
16735;SDS011;17990;49.548;9.730;2023-01-19T05:03:16;23.17;;;11.83;;
16735;SDS011;17990;49.548;9.730;2023-01-19T05:05:43;23.07;;;11.57;;
16735;SDS011;17990;49.548;9.730;2023-01-19T05:08:12;18.80;;;11.13;;
16735;SDS011;17990;49.548;9.730;2023-01-19T05:10:39;21.50;;;11.53;;
16735;SDS011;17990;49.548;9.730;2023-01-19T05:13:06;22.70;;;12.53;;
16735;SDS011;17990;49.548;9.730;2023-01-19T05:15:34;18.47;;;11.20;;
16735;SDS011;17990;49.548;9.730;2023-01-19T05:18:01;25.30;;;12.40;;
16735;SDS011;17990;49.548;9.730;2023-01-19T05:20:28;20.33;;;12.03;;
16735;SDS011;17990;49.548;9.730;2023-01-19T05:22:56;22.67;;;11.97;;
16735;SDS011;17990;49.548;9.730;2023-01-19T05:25:24;20.60;;;11.60;;
16735;SDS011;17990;49.548;9.730;2023-01-19T05:27:51;21.33;;;11.97;;
16735;SDS011;17990;49.548;9.730;2023-01-19T05:30:18;21.60;;;12.40;;
16735;SDS011;17990;49.548;9.730;2023-01-19T05:32:46;23.33;;;12.43;;
16735;SDS011;17990;49.548;9.730;2023-01-19T05:35:13;26.47;;;13.40;;
16735;SDS011;17990;49.548;9.730;2023-01-19T05:37:41;27.53;;;12.97;;
16735;SDS011;17990;49.548;9.730;2023-01-19T05:40:09;23.83;;;13.83;;
16735;SDS011;17990;49.548;9.730;2023-01-19T05:42:38;26.87;;;13.80;;
16735;SDS011;17990;49.548;9.730;2023-01-19T05:45:06;25.33;;;14.43;;
16735;SDS011;17990;49.548;9.730;2023-01-19T05:47:34;29.47;;;15.27;;
16735;SDS011;17990;49.548;9.730;2023-01-19T05:50:01;28.53;;;15.33;;
16735;SDS011;17990;49.548;9.730;2023-01-19T05:52:29;26.80;;;14.97;;
16735;SDS011;17990;49.548;9.730;2023-01-19T05:54:56;23.43;;;13.73;;
16735;SDS011;17990;49.548;9.730;2023-01-19T05:57:23;25.13;;;13.57;;
16735;SDS011;17990;49.548;9.730;2023-01-19T05:59:52;24.20;;;13.23;;
16735;SDS011;17990;49.548;9.730;2023-01-19T06:02:19;26.80;;;14.37;;
16735;SDS011;17990;49.548;9.730;2023-01-19T06:04:52;22.63;;;13.63;;
16735;SDS011;17990;49.548;9.730;2023-01-19T06:07:19;25.23;;;14.27;;
16735;SDS011;17990;49.548;9.730;2023-01-19T06:09:47;26.07;;;14.37;;
16735;SDS011;17990;49.548;9.730;2023-01-19T06:12:14;24.13;;;14.10;;
16735;SDS011;17990;49.548;9.730;2023-01-19T06:14:41;23.67;;;13.73;;
16735;SDS011;17990;49.548;9.730;2023-01-19T06:17:09;22.13;;;12.70;;
16735;SDS011;17990;49.548;9.730;2023-01-19T06:19:37;22.17;;;12.93;;
16735;SDS011;17990;49.548;9.730;2023-01-19T06:22:04;22.33;;;12.80;;
16735;SDS011;17990;49.548;9.730;2023-01-19T06:24:31;24.40;;;13.10;;
16735;SDS011;17990;49.548;9.730;2023-01-19T06:26:59;23.67;;;12.60;;
16735;SDS011;17990;49.548;9.730;2023-01-19T06:29:26;20.80;;;11.10;;
16735;SDS011;17990;49.548;9.730;2023-01-19T06:31:53;21.07;;;11.67;;
16735;SDS011;17990;49.548;9.730;2023-01-19T06:34:22;19.87;;;12.03;;
16735;SDS011;17990;49.548;9.730;2023-01-19T06:36:52;19.33;;;11.10;;
16735;SDS011;17990;49.548;9.730;2023-01-19T06:39:19;25.17;;;12.23;;
16735;SDS011;17990;49.548;9.730;2023-01-19T06:41:47;19.83;;;11.13;;
16735;SDS011;17990;49.548;9.730;2023-01-19T06:44:14;23.93;;;12.23;;
16735;SDS011;17990;49.548;9.730;2023-01-19T06:46:41;18.90;;;11.03;;
16735;SDS011;17990;49.548;9.730;2023-01-19T06:49:08;21.53;;;12.00;;
16735;SDS011;17990;49.548;9.730;2023-01-19T06:51:37;23.63;;;12.40;;
16735;SDS011;17990;49.548;9.730;2023-01-19T06:54:04;18.27;;;11.33;;
16735;SDS011;17990;49.548;9.730;2023-01-19T06:56:31;18.77;;;11.17;;
16735;SDS011;17990;49.548;9.730;2023-01-19T06:58:58;18.33;;;11.33;;
16735;SDS011;17990;49.548;9.730;2023-01-19T07:01:25;19.20;;;11.27;;
16735;SDS011;17990;49.548;9.730;2023-01-19T07:03:53;20.20;;;12.73;;
16735;SDS011;17990;49.548;9.730;2023-01-19T07:06:20;20.80;;;12.20;;
16735;SDS011;17990;49.548;9.730;2023-01-19T07:08:48;22.23;;;11.47;;
16735;SDS011;17990;49.548;9.730;2023-01-19T07:11:15;25.47;;;12.03;;
16735;SDS011;17990;49.548;9.730;2023-01-19T07:13:43;24.93;;;13.93;;
16735;SDS011;17990;49.548;9.730;2023-01-19T07:16:15;31.03;;;15.23;;
16735;SDS011;17990;49.548;9.730;2023-01-19T07:18:42;29.53;;;14.70;;
16735;SDS011;17990;49.548;9.730;2023-01-19T07:21:10;33.00;;;14.43;;
16735;SDS011;17990;49.548;9.730;2023-01-19T07:23:37;26.33;;;13.27;;
16735;SDS011;17990;49.548;9.730;2023-01-19T07:26:06;28.53;;;14.50;;
16735;SDS011;17990;49.548;9.730;2023-01-19T07:28:34;27.93;;;13.93;;
16735;SDS011;17990;49.548;9.730;2023-01-19T07:31:02;23.43;;;13.63;;
16735;SDS011;17990;49.548;9.730;2023-01-19T07:33:29;30.20;;;13.70;;
16735;SDS011;17990;49.548;9.730;2023-01-19T07:35:57;23.23;;;12.50;;
16735;SDS011;17990;49.548;9.730;2023-01-19T07:38:24;25.70;;;12.47;;
16735;SDS011;17990;49.548;9.730;2023-01-19T07:40:51;25.23;;;13.50;;
16735;SDS011;17990;49.548;9.730;2023-01-19T07:43:25;23.00;;;13.13;;
16735;SDS011;17990;49.548;9.730;2023-01-19T07:45:54;28.17;;;14.97;;
16735;SDS011;17990;49.548;9.730;2023-01-19T07:48:21;31.93;;;18.00;;
16735;SDS011;17990;49.548;9.730;2023-01-19T07:50:49;25.67;;;14.33;;
16735;SDS011;17990;49.548;9.730;2023-01-19T07:53:16;21.50;;;12.40;;
16735;SDS011;17990;49.548;9.730;2023-01-19T07:55:43;21.07;;;13.27;;
16735;SDS011;17990;49.548;9.730;2023-01-19T07:58:10;20.50;;;12.57;;
16735;SDS011;17990;49.548;9.730;2023-01-19T08:00:39;19.97;;;11.70;;
16735;SDS011;17990;49.548;9.730;2023-01-19T08:03:06;20.67;;;12.33;;
16735;SDS011;17990;49.548;9.730;2023-01-19T08:05:34;20.70;;;12.23;;
16735;SDS011;17990;49.548;9.730;2023-01-19T08:08:02;18.27;;;10.80;;
16735;SDS011;17990;49.548;9.730;2023-01-19T08:10:29;17.33;;;10.50;;
16735;SDS011;17990;49.548;9.730;2023-01-19T08:12:58;22.77;;;12.20;;
16735;SDS011;17990;49.548;9.730;2023-01-19T08:15:25;20.17;;;11.37;;
16735;SDS011;17990;49.548;9.730;2023-01-19T08:17:57;18.27;;;11.20;;
16735;SDS011;17990;49.548;9.730;2023-01-19T08:20:25;18.97;;;10.97;;
16735;SDS011;17990;49.548;9.730;2023-01-19T08:22:54;18.77;;;10.20;;
16735;SDS011;17990;49.548;9.730;2023-01-19T08:25:24;19.80;;;11.53;;
16735;SDS011;17990;49.548;9.730;2023-01-19T08:27:55;17.60;;;10.87;;
16735;SDS011;17990;49.548;9.730;2023-01-19T08:30:22;16.20;;;9.40;;
16735;SDS011;17990;49.548;9.730;2023-01-19T08:32:51;16.83;;;10.37;;
16735;SDS011;17990;49.548;9.730;2023-01-19T08:35:20;19.97;;;10.47;;
16735;SDS011;17990;49.548;9.730;2023-01-19T08:37:47;18.83;;;12.70;;
16735;SDS011;17990;49.548;9.730;2023-01-19T08:40:15;17.03;;;10.47;;
16735;SDS011;17990;49.548;9.730;2023-01-19T08:42:43;16.27;;;9.97;;
16735;SDS011;17990;49.548;9.730;2023-01-19T08:45:11;15.23;;;9.27;;
16735;SDS011;17990;49.548;9.730;2023-01-19T08:47:38;12.17;;;9.00;;
16735;SDS011;17990;49.548;9.730;2023-01-19T08:50:05;12.73;;;8.03;;
16735;SDS011;17990;49.548;9.730;2023-01-19T08:52:36;15.70;;;7.73;;
16735;SDS011;17990;49.548;9.730;2023-01-19T08:55:03;14.93;;;8.53;;
16735;SDS011;17990;49.548;9.730;2023-01-19T08:57:31;15.33;;;9.00;;
16735;SDS011;17990;49.548;9.730;2023-01-19T08:59:58;18.00;;;10.97;;
16735;SDS011;17990;49.548;9.730;2023-01-19T09:02:26;15.67;;;8.13;;
16735;SDS011;17990;49.548;9.730;2023-01-19T09:04:53;16.83;;;8.77;;
16735;SDS011;17990;49.548;9.730;2023-01-19T09:07:20;17.20;;;9.17;;
16735;SDS011;17990;49.548;9.730;2023-01-19T09:09:49;14.40;;;8.10;;
16735;SDS011;17990;49.548;9.730;2023-01-19T09:12:16;13.93;;;7.30;;
16735;SDS011;17990;49.548;9.730;2023-01-19T09:14:43;14.10;;;7.30;;
16735;SDS011;17990;49.548;9.730;2023-01-19T09:17:11;13.03;;;7.77;;
16735;SDS011;17990;49.548;9.730;2023-01-19T09:19:39;14.63;;;6.70;;
16735;SDS011;17990;49.548;9.730;2023-01-19T09:22:06;12.87;;;6.97;;
16735;SDS011;17990;49.548;9.730;2023-01-19T09:24:33;9.10;;;5.90;;
16735;SDS011;17990;49.548;9.730;2023-01-19T09:27:02;9.90;;;6.37;;
16735;SDS011;17990;49.548;9.730;2023-01-19T09:29:29;10.13;;;5.83;;
16735;SDS011;17990;49.548;9.730;2023-01-19T09:31:56;12.30;;;5.90;;
16735;SDS011;17990;49.548;9.730;2023-01-19T09:34:23;9.53;;;6.10;;
16735;SDS011;17990;49.548;9.730;2023-01-19T09:36:51;10.17;;;6.17;;
16735;SDS011;17990;49.548;9.730;2023-01-19T09:39:18;13.47;;;6.77;;
16735;SDS011;17990;49.548;9.730;2023-01-19T09:41:46;10.57;;;6.40;;
16735;SDS011;17990;49.548;9.730;2023-01-19T09:44:19;9.37;;;6.07;;
16735;SDS011;17990;49.548;9.730;2023-01-19T09:46:53;10.97;;;6.10;;
16735;SDS011;17990;49.548;9.730;2023-01-19T09:49:22;8.83;;;5.97;;
16735;SDS011;17990;49.548;9.730;2023-01-19T09:51:53;7.50;;;5.70;;
16735;SDS011;17990;49.548;9.730;2023-01-19T09:54:22;9.83;;;6.20;;
16735;SDS011;17990;49.548;9.730;2023-01-19T09:56:52;11.83;;;6.47;;
16735;SDS011;17990;49.548;9.730;2023-01-19T09:59:22;10.60;;;6.03;;
16735;SDS011;17990;49.548;9.730;2023-01-19T10:02:03;10.53;;;6.33;;
16735;SDS011;17990;49.548;9.730;2023-01-19T10:04:37;11.87;;;6.77;;
16735;SDS011;17990;49.548;9.730;2023-01-19T10:07:12;16.07;;;8.43;;
16735;SDS011;17990;49.548;9.730;2023-01-19T10:09:46;17.00;;;8.80;;
16735;SDS011;17990;49.548;9.730;2023-01-19T10:12:32;11.63;;;6.70;;
16735;SDS011;17990;49.548;9.730;2023-01-19T10:15:14;14.67;;;8.23;;
16735;SDS011;17990;49.548;9.730;2023-01-19T10:17:48;9.30;;;7.03;;
16735;SDS011;17990;49.548;9.730;2023-01-19T10:20:21;12.07;;;7.07;;
16735;SDS011;17990;49.548;9.730;2023-01-19T10:22:52;11.30;;;7.07;;
16735;SDS011;17990;49.548;9.730;2023-01-19T10:25:20;8.43;;;6.20;;
16735;SDS011;17990;49.548;9.730;2023-01-19T10:27:49;11.00;;;6.80;;
16735;SDS011;17990;49.548;9.730;2023-01-19T10:30:18;11.77;;;6.47;;
16735;SDS011;17990;49.548;9.730;2023-01-19T10:32:48;11.87;;;7.47;;
16735;SDS011;17990;49.548;9.730;2023-01-19T10:35:16;10.63;;;7.03;;
16735;SDS011;17990;49.548;9.730;2023-01-19T10:37:48;15.70;;;7.47;;
16735;SDS011;17990;49.548;9.730;2023-01-19T10:40:19;10.00;;;6.47;;
16735;SDS011;17990;49.548;9.730;2023-01-19T10:42:52;11.67;;;6.77;;
16735;SDS011;17990;49.548;9.730;2023-01-19T10:45:21;11.83;;;6.53;;
16735;SDS011;17990;49.548;9.730;2023-01-19T10:47:50;13.50;;;7.20;;
16735;SDS011;17990;49.548;9.730;2023-01-19T10:50:22;8.97;;;5.63;;
16735;SDS011;17990;49.548;9.730;2023-01-19T10:52:51;10.50;;;7.03;;
16735;SDS011;17990;49.548;9.730;2023-01-19T10:55:23;10.97;;;7.13;;
16735;SDS011;17990;49.548;9.730;2023-01-19T10:57:52;13.80;;;7.00;;
16735;SDS011;17990;49.548;9.730;2023-01-19T11:00:34;12.33;;;6.10;;
16735;SDS011;17990;49.548;9.730;2023-01-19T11:03:02;10.50;;;6.00;;
16735;SDS011;17990;49.548;9.730;2023-01-19T11:05:31;9.53;;;5.47;;
16735;SDS011;17990;49.548;9.730;2023-01-19T11:07:59;8.70;;;5.80;;
16735;SDS011;17990;49.548;9.730;2023-01-19T11:10:26;10.50;;;6.83;;
16735;SDS011;17990;49.548;9.730;2023-01-19T11:12:56;8.53;;;5.50;;
16735;SDS011;17990;49.548;9.730;2023-01-19T11:15:27;8.93;;;5.87;;
16735;SDS011;17990;49.548;9.730;2023-01-19T11:17:57;10.33;;;5.90;;
16735;SDS011;17990;49.548;9.730;2023-01-19T11:20:25;9.17;;;5.03;;
16735;SDS011;17990;49.548;9.730;2023-01-19T11:23:05;8.47;;;5.00;;
16735;SDS011;17990;49.548;9.730;2023-01-19T11:25:36;11.33;;;5.77;;
16735;SDS011;17990;49.548;9.730;2023-01-19T11:28:03;12.77;;;6.07;;
16735;SDS011;17990;49.548;9.730;2023-01-19T11:30:31;9.60;;;5.43;;
16735;SDS011;17990;49.548;9.730;2023-01-19T11:32:59;8.73;;;5.40;;
16735;SDS011;17990;49.548;9.730;2023-01-19T11:35:27;8.03;;;5.80;;
16735;SDS011;17990;49.548;9.730;2023-01-19T11:38:04;9.07;;;5.33;;
16735;SDS011;17990;49.548;9.730;2023-01-19T11:40:33;9.00;;;5.33;;
16735;SDS011;17990;49.548;9.730;2023-01-19T11:43:01;8.40;;;5.10;;
16735;SDS011;17990;49.548;9.730;2023-01-19T11:45:28;12.13;;;5.63;;
16735;SDS011;17990;49.548;9.730;2023-01-19T11:47:57;9.90;;;5.10;;
16735;SDS011;17990;49.548;9.730;2023-01-19T11:50:30;7.07;;;4.47;;
16735;SDS011;17990;49.548;9.730;2023-01-19T11:53:03;11.70;;;6.53;;
16735;SDS011;17990;49.548;9.730;2023-01-19T11:55:32;9.57;;;5.80;;
16735;SDS011;17990;49.548;9.730;2023-01-19T11:58:03;14.33;;;5.77;;
16735;SDS011;17990;49.548;9.730;2023-01-19T12:00:32;7.97;;;5.33;;
16735;SDS011;17990;49.548;9.730;2023-01-19T12:03:05;10.40;;;5.57;;
16735;SDS011;17990;49.548;9.730;2023-01-19T12:05:36;11.80;;;5.37;;
16735;SDS011;17990;49.548;9.730;2023-01-19T12:08:06;9.90;;;5.03;;
16735;SDS011;17990;49.548;9.730;2023-01-19T12:10:40;7.90;;;5.17;;
16735;SDS011;17990;49.548;9.730;2023-01-19T12:13:13;9.53;;;5.77;;
16735;SDS011;17990;49.548;9.730;2023-01-19T12:15:44;10.73;;;6.33;;
16735;SDS011;17990;49.548;9.730;2023-01-19T12:18:14;15.60;;;7.23;;
16735;SDS011;17990;49.548;9.730;2023-01-19T12:20:45;10.60;;;5.93;;
16735;SDS011;17990;49.548;9.730;2023-01-19T12:23:17;7.87;;;5.00;;
16735;SDS011;17990;49.548;9.730;2023-01-19T12:25:52;12.27;;;6.03;;
16735;SDS011;17990;49.548;9.730;2023-01-19T12:28:30;9.53;;;5.50;;
16735;SDS011;17990;49.548;9.730;2023-01-19T12:30:59;9.70;;;5.30;;
16735;SDS011;17990;49.548;9.730;2023-01-19T12:33:35;10.00;;;5.33;;
16735;SDS011;17990;49.548;9.730;2023-01-19T12:36:03;12.63;;;6.13;;
16735;SDS011;17990;49.548;9.730;2023-01-19T12:38:35;10.80;;;5.77;;
16735;SDS011;17990;49.548;9.730;2023-01-19T12:41:15;10.00;;;5.57;;
16735;SDS011;17990;49.548;9.730;2023-01-19T12:43:47;10.60;;;5.80;;
16735;SDS011;17990;49.548;9.730;2023-01-19T12:46:30;9.63;;;5.20;;
16735;SDS011;17990;49.548;9.730;2023-01-19T12:49:03;14.97;;;6.30;;
16735;SDS011;17990;49.548;9.730;2023-01-19T12:51:30;10.67;;;5.57;;
16735;SDS011;17990;49.548;9.730;2023-01-19T12:53:58;7.47;;;5.20;;
16735;SDS011;17990;49.548;9.730;2023-01-19T12:56:27;10.53;;;6.20;;
16735;SDS011;17990;49.548;9.730;2023-01-19T12:58:56;19.43;;;10.37;;
16735;SDS011;17990;49.548;9.730;2023-01-19T13:01:23;12.50;;;5.70;;
16735;SDS011;17990;49.548;9.730;2023-01-19T13:03:58;17.73;;;8.93;;
16735;SDS011;17990;49.548;9.730;2023-01-19T13:09:44;17.17;;;9.17;;
16735;SDS011;17990;49.548;9.730;2023-01-19T13:12:22;21.20;;;11.70;;
16735;SDS011;17990;49.548;9.730;2023-01-19T13:14:49;16.23;;;9.57;;
16735;SDS011;17990;49.548;9.730;2023-01-19T13:17:27;12.27;;;7.30;;
16735;SDS011;17990;49.548;9.730;2023-01-19T13:20:02;9.80;;;6.20;;
16735;SDS011;17990;49.548;9.730;2023-01-19T13:25:45;13.77;;;9.00;;
16735;SDS011;17990;49.548;9.730;2023-01-19T13:28:18;12.80;;;7.03;;
16735;SDS011;17990;49.548;9.730;2023-01-19T13:30:51;11.93;;;6.23;;
16735;SDS011;17990;49.548;9.730;2023-01-19T13:33:21;10.83;;;6.47;;
16735;SDS011;17990;49.548;9.730;2023-01-19T13:35:53;10.37;;;5.83;;
16735;SDS011;17990;49.548;9.730;2023-01-19T13:38:22;11.67;;;7.00;;
16735;SDS011;17990;49.548;9.730;2023-01-19T13:40:53;9.53;;;5.30;;
16735;SDS011;17990;49.548;9.730;2023-01-19T13:43:24;12.60;;;6.30;;
16735;SDS011;17990;49.548;9.730;2023-01-19T13:45:53;16.37;;;7.30;;
16735;SDS011;17990;49.548;9.730;2023-01-19T13:48:21;8.57;;;5.70;;
16735;SDS011;17990;49.548;9.730;2023-01-19T13:50:56;11.87;;;6.57;;
16735;SDS011;17990;49.548;9.730;2023-01-19T13:53:25;15.43;;;6.60;;
16735;SDS011;17990;49.548;9.730;2023-01-19T13:56:12;10.33;;;6.17;;
16735;SDS011;17990;49.548;9.730;2023-01-19T13:58:42;10.63;;;5.53;;
16735;SDS011;17990;49.548;9.730;2023-01-19T14:01:19;11.50;;;7.03;;
16735;SDS011;17990;49.548;9.730;2023-01-19T14:03:47;11.50;;;6.90;;
16735;SDS011;17990;49.548;9.730;2023-01-19T14:09:13;9.00;;;5.47;;
16735;SDS011;17990;49.548;9.730;2023-01-19T14:11:46;11.10;;;5.77;;
16735;SDS011;17990;49.548;9.730;2023-01-19T14:14:29;10.47;;;6.37;;
16735;SDS011;17990;49.548;9.730;2023-01-19T14:16:56;11.17;;;6.70;;
16735;SDS011;17990;49.548;9.730;2023-01-19T14:19:23;9.13;;;5.90;;
16735;SDS011;17990;49.548;9.730;2023-01-19T14:21:58;13.87;;;6.87;;
16735;SDS011;17990;49.548;9.730;2023-01-19T14:24:26;9.30;;;5.70;;
16735;SDS011;17990;49.548;9.730;2023-01-19T14:27:15;11.10;;;6.33;;
16735;SDS011;17990;49.548;9.730;2023-01-19T14:29:44;9.40;;;5.27;;
16735;SDS011;17990;49.548;9.730;2023-01-19T14:32:14;9.47;;;6.30;;
16735;SDS011;17990;49.548;9.730;2023-01-19T14:34:44;10.87;;;6.43;;
16735;SDS011;17990;49.548;9.730;2023-01-19T14:37:14;8.23;;;5.60;;
16735;SDS011;17990;49.548;9.730;2023-01-19T14:39:49;14.50;;;8.57;;
16735;SDS011;17990;49.548;9.730;2023-01-19T14:42:20;11.43;;;6.80;;
16735;SDS011;17990;49.548;9.730;2023-01-19T14:44:50;10.37;;;7.37;;
16735;SDS011;17990;49.548;9.730;2023-01-19T14:47:26;14.43;;;7.97;;
16735;SDS011;17990;49.548;9.730;2023-01-19T14:49:55;12.93;;;6.80;;
16735;SDS011;17990;49.548;9.730;2023-01-19T14:52:25;14.83;;;7.43;;
16735;SDS011;17990;49.548;9.730;2023-01-19T14:54:55;10.40;;;5.67;;
16735;SDS011;17990;49.548;9.730;2023-01-19T14:57:24;14.97;;;7.87;;